Time;durP1;ratioP1;P1;durP2;ratioP2;P2;SDS_P1;SDS_P2;PMS_P1;PMS_P2;Temp;Humidity;BMP_temperature;BMP_pressure;BME280_temperature;BME280_humidity;BME280_pressure;Samples;Min_cycle;Max_cycle;Signal;HPM_P1;HPM_P2
2022/10/24 00:00:18;;;;;;;11.73;3.60;;;;;;;17.59;100.00;96105.34;5004573;28;20268;-83
2022/10/24 00:02:45;;;;;;;8.40;3.30;;;;;;;17.68;100.00;96085.41;5003395;28;20200;-83
2022/10/24 00:05:14;;;;;;;8.90;2.90;;;;;;;17.80;100.00;96097.88;5004540;28;20219;-82
2022/10/24 00:07:41;;;;;;;8.93;2.97;;;;;;;17.81;100.00;96089.41;5000180;28;20207;-83
2022/10/24 00:10:12;;;;;;;10.37;2.40;;;;;;;17.89;100.00;96090.72;5005097;28;20219;-83
2022/10/24 00:12:39;;;;;;;9.63;2.50;;;;;;;17.90;100.00;96087.72;5008469;28;20219;-83
2022/10/24 00:15:08;;;;;;;9.20;2.70;;;;;;;17.92;100.00;96090.16;5007763;28;20207;-83
2022/10/24 00:17:35;;;;;;;8.60;2.63;;;;;;;17.95;100.00;96079.47;5010247;28;20211;-83
2022/10/24 00:20:03;;;;;;;6.73;2.33;;;;;;;18.19;100.00;96078.78;5028700;28;20196;-83
2022/10/24 00:22:32;;;;;;;4.53;2.10;;;;;;;18.15;100.00;96073.88;5011398;28;20203;-83
2022/10/24 00:24:59;;;;;;;5.87;1.97;;;;;;;18.24;100.00;96076.81;5008126;28;20207;-83
2022/10/24 00:27:26;;;;;;;3.50;1.50;;;;;;;18.36;100.00;96088.22;5009526;28;20226;-84
2022/10/24 00:29:53;;;;;;;3.87;1.87;;;;;;;18.52;100.00;96094.38;5011786;28;20278;-83
2022/10/24 00:32:20;;;;;;;4.23;1.83;;;;;;;18.50;100.00;96102.03;5026689;28;20216;-84
2022/10/24 00:34:47;;;;;;;7.67;2.77;;;;;;;18.32;100.00;96109.00;5023544;28;20210;-83
2022/10/24 00:37:15;;;;;;;5.40;2.30;;;;;;;18.01;100.00;96089.28;5006656;28;20207;-84
2022/10/24 00:39:43;;;;;;;7.77;2.20;;;;;;;17.82;100.00;96115.63;5008951;28;20199;-83
2022/10/24 00:42:11;;;;;;;7.10;2.20;;;;;;;17.69;100.00;96097.94;5010570;28;20242;-84
2022/10/24 00:44:39;;;;;;;7.10;2.73;;;;;;;17.68;100.00;96122.81;5012951;28;20206;-84
2022/10/24 00:47:10;;;;;;;10.20;2.50;;;;;;;17.60;100.00;96117.91;5004307;28;20269;-84
2022/10/24 00:49:44;;;;;;;8.27;2.97;;;;;;;17.50;100.00;96126.13;5008713;28;20215;-84
2022/10/24 00:52:13;;;;;;;5.07;2.00;;;;;;;17.35;100.00;96122.34;5001889;28;20313;-84
2022/10/24 00:54:43;;;;;;;8.80;2.80;;;;;;;17.46;100.00;96157.78;5025800;28;20214;-84
2022/10/24 00:57:18;;;;;;;12.47;3.00;;;;;;;17.34;100.00;96164.41;5010862;28;20231;-84
2022/10/24 00:59:49;;;;;;;9.37;3.10;;;;;;;17.31;100.00;96153.22;5010461;28;20273;-84
2022/10/24 01:02:16;;;;;;;9.37;3.37;;;;;;;17.18;100.00;96156.53;5005781;28;20294;-84
2022/10/24 01:04:46;;;;;;;9.93;3.20;;;;;;;17.18;100.00;96187.34;5003976;28;20241;-84
2022/10/24 01:07:29;;;;;;;11.37;3.00;;;;;;;17.08;100.00;96171.00;5007515;28;20231;-83
2022/10/24 01:10:16;;;;;;;7.67;2.97;;;;;;;17.12;100.00;96185.72;5010756;28;20230;-84
2022/10/24 01:12:53;;;;;;;7.90;2.93;;;;;;;17.02;100.00;96192.00;5000445;28;20204;-84
2022/10/24 01:15:28;;;;;;;8.97;3.00;;;;;;;16.99;100.00;96197.22;5009226;28;20263;-84
2022/10/24 01:18:00;;;;;;;10.53;2.90;;;;;;;17.11;100.00;96205.91;5023560;28;20207;-84
2022/10/24 01:20:50;;;;;;;7.73;3.03;;;;;;;16.96;100.00;96205.94;5005123;28;20224;-84
2022/10/24 01:23:36;;;;;;;8.37;3.20;;;;;;;16.93;100.00;96192.81;4998294;28;20250;-84
2022/10/24 01:26:26;;;;;;;9.90;3.20;;;;;;;16.79;100.00;96191.75;5004811;28;20218;-84
2022/10/24 01:29:01;;;;;;;8.53;3.00;;;;;;;16.76;100.00;96193.09;5004542;28;20212;-84
2022/10/24 01:31:40;;;;;;;9.60;2.63;;;;;;;16.75;100.00;96201.59;5018877;28;20219;-84
2022/10/24 01:34:15;;;;;;;7.87;2.80;;;;;;;16.59;100.00;96206.97;5001291;28;20203;-83
2022/10/24 01:36:48;;;;;;;8.60;2.90;;;;;;;16.53;100.00;96210.78;5007906;28;20207;-84
2022/10/24 01:39:21;;;;;;;9.37;3.23;;;;;;;16.35;100.00;96188.69;5006264;28;20215;-83
2022/10/24 01:41:50;;;;;;;9.40;2.73;;;;;;;16.34;100.00;96200.69;5009711;28;20200;-84
2022/10/24 01:44:22;;;;;;;6.47;2.90;;;;;;;16.32;100.00;96202.88;5006564;28;20214;-83
2022/10/24 01:46:56;;;;;;;7.17;2.80;;;;;;;16.28;100.00;96188.97;5009707;28;20246;-84
2022/10/24 01:49:28;;;;;;;9.53;2.90;;;;;;;16.19;100.00;96175.06;5007423;28;20212;-83
2022/10/24 01:52:00;;;;;;;10.37;2.97;;;;;;;16.09;100.00;96191.38;5022610;28;20212;-83
2022/10/24 01:54:28;;;;;;;7.40;3.00;;;;;;;15.92;100.00;96181.78;5007005;28;20204;-83
2022/10/24 01:56:55;;;;;;;10.50;2.83;;;;;;;15.96;100.00;96174.72;5010780;28;20202;-83
2022/10/24 01:59:44;;;;;;;8.80;3.10;;;;;;;15.94;100.00;96179.63;5005024;28;20243;-83
2022/10/24 02:02:18;;;;;;;7.93;2.77;;;;;;;15.89;100.00;96194.88;5000511;28;20236;-83
2022/10/24 02:04:50;;;;;;;4.47;2.60;;;;;;;15.80;100.00;96190.22;5005455;28;20318;-83
2022/10/24 02:07:20;;;;;;;7.53;2.83;;;;;;;15.79;100.00;96183.94;5021179;28;20213;-83
2022/10/24 02:09:51;;;;;;;5.27;2.50;;;;;;;15.84;100.00;96173.06;5006670;28;20231;-84
2022/10/24 02:12:23;;;;;;;5.63;2.50;;;;;;;15.86;100.00;96179.06;5007454;28;20261;-84
2022/10/24 02:14:55;;;;;;;6.80;2.13;;;;;;;15.88;100.00;96176.06;5007144;28;20211;-83
2022/10/24 02:17:24;;;;;;;6.33;2.13;;;;;;;15.89;100.00;96178.53;5007139;28;20203;-83
2022/10/24 02:19:51;;;;;;;6.70;2.50;;;;;;;15.86;100.00;96178.25;5006585;28;20206;-83
2022/10/24 02:22:27;;;;;;;4.03;1.70;;;;;;;15.87;100.00;96180.69;5001284;28;20299;-84
2022/10/24 02:25:01;;;;;;;7.07;2.50;;;;;;;15.70;100.00;96157.50;5003849;28;20294;-83
2022/10/24 02:27:33;;;;;;;8.33;2.30;;;;;;;15.71;100.00;96164.59;5022897;28;20218;-84
2022/10/24 02:30:03;;;;;;;9.03;2.73;;;;;;;15.62;100.00;96164.28;5009696;28;20200;-83
2022/10/24 02:32:34;;;;;;;4.23;2.00;;;;;;;15.54;100.00;96164.78;5003987;28;20246;-85
2022/10/24 02:35:04;;;;;;;3.97;1.80;;;;;;;15.55;100.00;96171.88;5005613;28;20341;-84
2022/10/24 02:37:34;;;;;;;4.70;2.30;;;;;;;15.37;100.00;96169.56;5007672;28;20205;-84
2022/10/24 02:40:06;;;;;;;5.27;2.47;;;;;;;15.32;100.00;96166.81;5008421;28;20234;-85
2022/10/24 02:42:34;;;;;;;5.67;1.90;;;;;;;15.24;100.00;96167.31;5008370;28;20250;-85
2022/10/24 02:45:03;;;;;;;3.03;1.90;;;;;;;15.15;100.00;96159.66;5025786;28;20204;-84
2022/10/24 02:47:33;;;;;;;8.00;2.30;;;;;;;15.07;100.00;96143.84;5005800;28;20203;-85
2022/10/24 02:50:01;;;;;;;3.80;2.23;;;;;;;15.20;100.00;96167.03;5006519;28;20306;-84
2022/10/24 02:52:29;;;;;;;10.20;2.50;;;;;;;15.21;100.00;96165.97;5005068;28;20231;-85
2022/10/24 02:54:56;;;;;;;3.43;2.00;;;;;;;15.21;100.00;96174.13;5006725;28;20210;-85
2022/10/24 02:57:25;;;;;;;2.93;1.70;;;;;;;15.17;100.00;96164.84;5020198;28;20211;-84
2022/10/24 02:59:52;;;;;;;7.13;2.00;;;;;;;15.15;100.00;96153.41;5007278;28;20287;-85
2022/10/24 03:02:19;;;;;;;6.87;1.90;;;;;;;15.09;100.00;96141.69;5017791;28;20197;-84
2022/10/24 03:04:48;;;;;;;4.30;2.57;;;;;;;15.15;100.00;96161.56;4998154;28;20232;-84
2022/10/24 03:07:15;;;;;;;3.90;2.20;;;;;;;15.17;100.00;96153.13;5007875;28;20200;-85
2022/10/24 03:09:42;;;;;;;6.43;2.63;;;;;;;15.21;100.00;96154.25;5008410;28;20220;-85
2022/10/24 03:12:11;;;;;;;4.67;2.00;;;;;;;15.29;100.00;96159.22;5009388;28;20227;-84
2022/10/24 03:14:38;;;;;;;6.17;2.60;;;;;;;15.28;100.00;96143.97;4998351;28;20216;-84
2022/10/24 03:17:05;;;;;;;5.93;1.90;;;;;;;15.25;100.00;96149.91;5006528;28;20218;-84
2022/10/24 03:19:33;;;;;;;6.33;2.70;;;;;;;15.37;100.00;96164.13;5006217;28;20211;-85
2022/10/24 03:22:01;;;;;;;3.90;2.10;;;;;;;15.36;100.00;96163.31;5004790;28;20201;-84
2022/10/24 03:24:28;;;;;;;6.03;2.13;;;;;;;15.37;100.00;96164.97;5004439;28;20286;-84
2022/10/24 03:26:55;;;;;;;4.20;1.90;;;;;;;15.34;100.00;96170.09;5004923;28;20197;-85
2022/10/24 03:29:22;;;;;;;6.10;2.07;;;;;;;15.25;100.00;96166.25;5006700;28;20211;-84
2022/10/24 03:31:49;;;;;;;5.43;1.80;;;;;;;15.24;100.00;96173.56;5021440;28;20309;-84
2022/10/24 03:34:16;;;;;;;5.27;2.33;;;;;;;15.25;100.00;96179.84;5007983;28;20199;-84
2022/10/24 03:36:43;;;;;;;3.73;2.20;;;;;;;15.25;100.00;96183.38;5004252;28;20199;-84
2022/10/24 03:39:12;;;;;;;6.33;2.17;;;;;;;15.17;100.00;96166.75;5001969;28;20214;-85
2022/10/24 03:41:39;;;;;;;5.03;1.90;;;;;;;15.21;100.00;96165.16;5003109;28;20200;-85
2022/10/24 03:44:08;;;;;;;11.20;2.17;;;;;;;15.25;100.00;96164.34;5005218;28;20199;-85
2022/10/24 03:46:35;;;;;;;10.10;4.83;;;;;;;15.18;100.00;96168.38;5021392;28;20212;-85
2022/10/24 03:49:02;;;;;;;6.77;2.20;;;;;;;15.19;100.00;96178.19;5010019;28;20221;-85
2022/10/24 03:51:29;;;;;;;6.53;2.30;;;;;;;15.06;100.00;96163.94;5011281;28;20237;-85
2022/10/24 03:53:56;;;;;;;5.17;3.20;;;;;;;15.14;100.00;96171.63;5024221;28;20250;-83
2022/10/24 03:56:24;;;;;;;5.23;2.10;;;;;;;15.12;100.00;96157.50;5009429;28;20230;-83
2022/10/24 03:58:51;;;;;;;4.73;2.03;;;;;;;15.08;100.00;96156.38;5003740;28;20214;-84
2022/10/24 04:01:20;;;;;;;5.80;1.93;;;;;;;15.05;100.00;96128.91;5009969;28;20219;-84
2022/10/24 04:03:47;;;;;;;4.53;1.90;;;;;;;15.07;100.00;96119.38;5003276;28;20203;-85
2022/10/24 04:06:14;;;;;;;3.67;1.97;;;;;;;15.06;100.00;96125.06;5018135;28;20279;-83
2022/10/24 04:08:41;;;;;;;4.20;1.73;;;;;;;14.97;100.00;96119.31;5011368;28;20215;-86
2022/10/24 04:11:08;;;;;;;8.83;2.10;;;;;;;15.01;100.00;96120.44;5027094;28;20227;-85
2022/10/24 04:13:37;;;;;;;3.50;1.63;;;;;;;15.07;100.00;96105.78;5005795;28;20297;-85
2022/10/24 04:16:04;;;;;;;5.70;2.03;;;;;;;14.98;100.00;96091.03;5009772;28;20212;-84
2022/10/24 04:18:32;;;;;;;3.80;1.80;;;;;;;14.91;100.00;96101.34;5010232;28;20268;-84
2022/10/24 04:20:59;;;;;;;2.97;1.63;;;;;;;15.01;100.00;96111.47;5020007;28;20196;-84
2022/10/24 04:23:26;;;;;;;8.53;2.10;;;;;;;14.97;100.00;96111.16;5002535;28;20208;-85
2022/10/24 04:25:54;;;;;;;4.43;1.70;;;;;;;14.95;100.00;96101.66;5004921;28;20254;-85
2022/10/24 04:28:21;;;;;;;4.63;1.90;;;;;;;14.97;100.00;96089.41;5011506;28;20227;-86
2022/10/24 04:30:54;;;;;;;3.37;1.57;;;;;;;14.96;100.00;96085.06;5022962;28;20204;-86
2022/10/24 04:33:21;;;;;;;2.20;1.53;;;;;;;14.91;100.00;96079.59;5009260;28;20318;-86
2022/10/24 04:35:49;;;;;;;7.17;1.90;;;;;;;14.90;100.00;96086.09;5011782;28;20200;-85
2022/10/24 04:38:17;;;;;;;3.50;1.50;;;;;;;14.93;100.00;96082.06;5011517;28;20272;-86
2022/10/24 04:40:46;;;;;;;2.93;1.40;;;;;;;15.04;100.00;96094.63;5029008;28;20203;-86
2022/10/24 04:43:13;;;;;;;3.00;1.70;;;;;;;14.97;100.00;96092.13;5014181;28;20196;-85
2022/10/24 04:45:40;;;;;;;2.23;1.53;;;;;;;14.96;100.00;96095.94;5015682;28;20188;-86
2022/10/24 04:48:09;;;;;;;4.30;1.83;;;;;;;15.05;100.00;96088.94;5006693;28;20196;-84
2022/10/24 04:50:36;;;;;;;6.10;1.90;;;;;;;15.09;100.00;96102.78;5010445;28;20204;-85
2022/10/24 04:53:03;;;;;;;3.23;1.80;;;;;;;15.03;100.00;96120.19;5011036;28;20322;-85
2022/10/24 04:55:30;;;;;;;6.20;2.40;;;;;;;15.02;100.00;96113.09;5010143;28;20203;-86
2022/10/24 04:57:57;;;;;;;3.83;2.33;;;;;;;15.02;100.00;96103.03;5028113;28;20299;-86
2022/10/24 05:00:24;;;;;;;12.50;6.23;;;;;;;14.90;100.00;96094.25;5003584;28;20210;-86
2022/10/24 05:02:52;;;;;;;5.50;2.80;;;;;;;14.88;100.00;96099.16;5006077;28;20234;-84
2022/10/24 05:05:20;;;;;;;3.80;2.70;;;;;;;14.82;100.00;96097.47;5026394;28;20315;-85
2022/10/24 05:07:48;;;;;;;6.90;3.07;;;;;;;14.86;100.00;96109.47;5007166;28;20207;-85
2022/10/24 05:10:17;;;;;;;7.03;2.63;;;;;;;14.83;100.00;96110.00;5010677;28;20230;-85
2022/10/24 05:12:44;;;;;;;6.57;2.60;;;;;;;14.77;100.00;96116.50;5011188;28;20215;-85
2022/10/24 05:15:13;;;;;;;5.17;2.47;;;;;;;14.69;100.00;96106.94;5011055;28;20203;-85
2022/10/24 05:17:40;;;;;;;9.70;2.90;;;;;;;14.75;100.00;96102.34;5008002;28;20215;-85
2022/10/24 05:20:08;;;;;;;5.83;3.27;;;;;;;14.75;100.00;96102.34;5017072;28;20214;-85
2022/10/24 05:22:36;;;;;;;8.17;3.07;;;;;;;14.70;100.00;96102.31;5022770;28;20265;-85
2022/10/24 05:25:04;;;;;;;6.00;2.27;;;;;;;14.69;100.00;96104.22;5010270;28;20207;-85
2022/10/24 05:27:32;;;;;;;5.63;2.63;;;;;;;14.76;100.00;96112.13;5028963;28;20210;-85
2022/10/24 05:29:59;;;;;;;9.20;2.90;;;;;;;14.69;100.00;96098.78;5011808;28;20203;-85
2022/10/24 05:32:26;;;;;;;6.83;3.33;;;;;;;14.64;100.00;96093.28;5001142;28;20235;-84
2022/10/24 05:34:53;;;;;;;4.53;3.07;;;;;;;14.62;100.00;96076.44;5022579;28;20234;-85
2022/10/24 05:37:20;;;;;;;10.63;3.80;;;;;;;14.71;100.00;96080.31;5017406;28;20299;-86
2022/10/24 05:39:48;;;;;;;5.23;2.70;;;;;;;14.70;100.00;96086.84;5004210;28;20206;-84
2022/10/24 05:42:16;;;;;;;7.53;2.30;;;;;;;14.68;100.00;96097.13;5008430;28;20192;-85
2022/10/24 05:44:43;;;;;;;4.27;3.13;;;;;;;14.67;100.00;96103.66;5016775;28;20220;-86
2022/10/24 05:47:10;;;;;;;6.87;2.93;;;;;;;14.61;100.00;96091.13;5002003;28;20214;-84
2022/10/24 05:49:37;;;;;;;6.03;2.50;;;;;;;14.61;100.00;96087.56;5023800;28;20259;-86
2022/10/24 05:52:05;;;;;;;4.30;2.20;;;;;;;14.58;100.00;96077.22;5003205;28;20307;-84
2022/10/24 05:54:32;;;;;;;4.37;2.83;;;;;;;14.64;100.00;96085.13;5009142;28;20237;-85
2022/10/24 05:57:00;;;;;;;4.37;2.07;;;;;;;14.61;100.00;96071.28;5020497;28;20204;-85
2022/10/24 05:59:28;;;;;;;3.33;2.30;;;;;;;14.63;100.00;96080.00;5008496;28;20203;-85
2022/10/24 06:01:54;;;;;;;4.43;2.63;;;;;;;14.61;100.00;96079.44;5006245;28;20259;-85
2022/10/24 06:04:21;;;;;;;4.87;2.07;;;;;;;14.65;100.00;96092.22;5006776;28;20204;-85
2022/10/24 06:06:49;;;;;;;4.87;1.90;;;;;;;14.62;100.00;96091.94;5013393;28;20191;-85
2022/10/24 06:09:16;;;;;;;8.73;2.30;;;;;;;14.60;100.00;96089.47;5025789;28;20204;-85
2022/10/24 06:11:43;;;;;;;5.07;2.03;;;;;;;14.64;100.00;96100.63;5018864;28;20274;-85
2022/10/24 06:14:12;;;;;;;8.00;2.60;;;;;;;14.59;100.00;96090.56;5004044;28;20210;-85
2022/10/24 06:16:39;;;;;;;7.93;2.30;;;;;;;14.59;100.00;96084.28;5008359;28;20211;-85
2022/10/24 06:19:06;;;;;;;6.07;2.13;;;;;;;14.66;100.00;96102.00;5000790;28;20195;-85
2022/10/24 06:21:33;;;;;;;5.03;2.10;;;;;;;14.70;100.00;96114.00;5017703;28;20266;-84
2022/10/24 06:24:01;;;;;;;4.87;2.30;;;;;;;14.74;100.00;96117.00;5009700;28;20202;-85
2022/10/24 06:26:28;;;;;;;4.73;2.57;;;;;;;14.65;100.00;96107.69;5005592;28;20290;-84
2022/10/24 06:28:55;;;;;;;8.17;2.37;;;;;;;14.71;100.00;96121.09;5000580;28;20206;-84
2022/10/24 06:31:25;;;;;;;2.93;1.90;;;;;;;14.68;100.00;96124.31;5001802;28;20203;-83
2022/10/24 06:33:54;;;;;;;3.50;2.13;;;;;;;14.62;100.00;96124.53;5014347;28;20255;-85
2022/10/24 06:36:21;;;;;;;2.93;1.93;;;;;;;14.66;100.00;96128.34;5008568;28;20195;-83
2022/10/24 06:38:48;;;;;;;5.97;2.30;;;;;;;14.66;100.00;96114.78;5007338;28;20211;-85
2022/10/24 06:41:16;;;;;;;6.77;2.27;;;;;;;14.73;100.00;96120.78;5019929;28;20261;-84
2022/10/24 06:43:43;;;;;;;5.53;2.70;;;;;;;14.75;100.00;96129.50;5006095;28;20207;-84
2022/10/24 06:46:14;;;;;;;12.03;3.13;;;;;;;14.77;100.00;96138.22;5021203;28;20211;-85
2022/10/24 06:48:44;;;;;;;29.57;23.83;;;;;;;14.76;100.00;96145.56;5018976;28;20214;-83
2022/10/24 06:51:14;;;;;;;16.33;13.00;;;;;;;14.78;100.00;96145.31;5026244;28;20219;-85
2022/10/24 06:53:42;;;;;;;6.97;5.17;;;;;;;14.80;100.00;96142.34;5005082;28;20246;-84
2022/10/24 06:56:09;;;;;;;7.47;5.50;;;;;;;14.82;100.00;96140.97;5006218;28;20204;-84
2022/10/24 06:58:38;;;;;;;7.50;2.60;;;;;;;14.74;100.00;96152.34;5011545;28;20206;-84
2022/10/24 07:01:09;;;;;;;3.17;2.43;;;;;;;14.76;100.00;96150.19;5022304;28;20216;-84
2022/10/24 07:03:37;;;;;;;2.07;1.87;;;;;;;14.77;100.00;96165.41;5003402;28;20204;-83
2022/10/24 07:06:08;;;;;;;2.40;1.87;;;;;;;14.73;100.00;96167.00;5002217;28;20239;-84
2022/10/24 07:08:35;;;;;;;3.50;2.50;;;;;;;14.80;100.00;96192.06;5000898;28;20231;-84
2022/10/24 07:11:02;;;;;;;4.63;2.33;;;;;;;14.74;100.00;96183.03;4997799;28;20314;-84
2022/10/24 07:13:30;;;;;;;6.17;2.50;;;;;;;14.79;100.00;96187.72;5002372;28;20224;-84
2022/10/24 07:15:57;;;;;;;6.83;2.13;;;;;;;14.83;100.00;96202.41;5004785;28;20196;-83
2022/10/24 07:18:24;;;;;;;5.83;2.27;;;;;;;14.96;100.00;96215.56;5009444;28;20199;-83
2022/10/24 07:20:51;;;;;;;5.93;2.50;;;;;;;14.98;100.00;96226.16;4999425;28;20204;-84
2022/10/24 07:23:20;;;;;;;5.43;3.10;;;;;;;14.95;100.00;96219.38;5000353;28;20218;-83
2022/10/24 07:25:47;;;;;;;6.40;3.03;;;;;;;14.94;100.00;96217.72;5003522;28;20210;-85
2022/10/24 07:28:14;;;;;;;8.30;2.80;;;;;;;14.94;100.00;96225.88;5003687;28;20231;-85
2022/10/24 07:30:44;;;;;;;4.73;2.50;;;;;;;15.05;100.00;96249.34;5005717;28;20203;-84
2022/10/24 07:33:11;;;;;;;6.33;2.63;;;;;;;14.99;100.00;96250.38;5002135;28;20281;-84
2022/10/24 07:35:41;;;;;;;7.07;2.67;;;;;;;14.88;100.00;96247.88;5020846;28;20202;-84
2022/10/24 07:38:08;;;;;;;5.53;2.47;;;;;;;14.97;100.00;96255.25;5008010;28;20215;-85
2022/10/24 07:40:37;;;;;;;8.77;2.67;;;;;;;14.92;100.00;96252.50;5025251;28;20209;-86
2022/10/24 07:43:04;;;;;;;6.07;3.50;;;;;;;14.79;100.00;96254.84;5009307;28;20218;-86
2022/10/24 07:45:31;;;;;;;13.03;3.30;;;;;;;14.67;100.00;96242.25;5027047;28;20215;-83
2022/10/24 07:47:59;;;;;;;4.83;3.10;;;;;;;14.72;100.00;96246.88;5019001;28;20218;-84
2022/10/24 07:50:26;;;;;;;4.97;3.00;;;;;;;14.69;100.00;96233.84;5008993;28;20238;-84
2022/10/24 07:52:53;;;;;;;6.57;2.40;;;;;;;14.75;100.00;96238.22;5002343;28;20222;-84
2022/10/24 07:55:20;;;;;;;8.37;2.40;;;;;;;14.73;100.00;96232.22;5005656;28;20208;-83
2022/10/24 07:57:49;;;;;;;3.23;2.47;;;;;;;14.71;100.00;96232.50;5024471;28;20196;-83
2022/10/24 08:00:17;;;;;;;4.57;2.50;;;;;;;14.65;100.00;96221.84;5025254;28;20214;-83
2022/10/24 08:02:44;;;;;;;4.87;2.70;;;;;;;14.70;100.00;96219.19;4997377;28;20228;-83
2022/10/24 08:05:11;;;;;;;3.80;2.50;;;;;;;14.79;100.00;96219.53;5006824;28;20235;-83
2022/10/24 08:07:38;;;;;;;4.63;2.50;;;;;;;14.75;100.00;96209.16;5001428;28;20212;-84
2022/10/24 08:10:11;;;;;;;3.23;2.10;;;;;;;14.74;100.00;96207.50;5023196;28;20219;-84
2022/10/24 08:12:38;;;;;;;4.80;2.50;;;;;;;14.69;100.00;96190.34;5010213;28;20247;-82
2022/10/24 08:15:07;;;;;;;4.63;2.30;;;;;;;14.69;100.00;96190.34;4998477;28;20223;-85
2022/10/24 08:17:36;;;;;;;4.40;2.50;;;;;;;14.73;100.00;96197.72;4999196;28;20216;-86
2022/10/24 08:20:06;;;;;;;5.33;2.70;;;;;;;14.80;100.00;96200.19;5002526;28;20200;-85
2022/10/24 08:22:34;;;;;;;5.93;2.53;;;;;;;14.73;100.00;96188.75;5003484;28;20210;-86
2022/10/24 08:25:01;;;;;;;4.77;2.33;;;;;;;14.72;100.00;96173.50;5021028;28;20314;-85
2022/10/24 08:27:29;;;;;;;3.27;1.97;;;;;;;14.89;100.00;96189.66;5017957;28;20212;-85
2022/10/24 08:29:56;;;;;;;5.07;2.73;;;;;;;14.97;100.00;96181.06;5019598;28;20203;-85
2022/10/24 08:32:25;;;;;;;4.50;2.40;;;;;;;15.04;100.00;96190.63;5001078;28;20299;-85
2022/10/24 08:34:52;;;;;;;3.43;2.73;;;;;;;15.05;100.00;96200.41;5000522;28;20207;-86
2022/10/24 08:37:19;;;;;;;9.10;2.97;;;;;;;15.06;100.00;96199.31;5023126;28;20310;-82
2022/10/24 08:39:47;;;;;;;5.37;2.70;;;;;;;15.15;100.00;96205.91;5008935;28;20259;-82
2022/10/24 08:42:16;;;;;;;5.13;2.80;;;;;;;15.26;100.00;96206.78;5025336;28;20215;-82
2022/10/24 08:44:46;;;;;;;6.47;2.90;;;;;;;15.28;100.00;96195.66;5007668;28;20199;-82
2022/10/24 08:47:22;;;;;;;4.87;2.60;;;;;;;15.44;100.00;96197.34;5006527;28;20271;-82
2022/10/24 08:49:54;;;;;;;7.20;3.00;;;;;;;15.40;100.00;96180.72;5006219;28;20215;-82
2022/10/24 08:52:29;;;;;;;3.60;2.53;;;;;;;15.50;100.00;96199.84;5009412;28;20219;-82
2022/10/24 08:55:01;;;;;;;2.83;1.80;;;;;;;15.60;100.00;96188.22;5005629;28;20238;-82
2022/10/24 08:57:32;;;;;;;9.40;3.27;;;;;;;15.51;100.00;96193.31;5023099;28;20258;-82
2022/10/24 09:00:04;;;;;;;7.47;2.77;;;;;;;15.68;100.00;96186.88;5007147;28;21952;-82
2022/10/24 09:02:38;;;;;;;9.00;2.67;;;;;;;15.64;100.00;96191.25;5010098;28;20209;-82
2022/10/24 09:05:21;;;;;;;4.77;2.20;;;;;;;15.69;100.00;96194.78;5005134;28;20239;-82
2022/10/24 09:07:55;;;;;;;6.20;2.27;;;;;;;15.78;100.00;96187.75;4999074;28;20204;-82
2022/10/24 09:10:31;;;;;;;5.70;2.27;;;;;;;15.85;100.00;96193.75;5011200;28;20235;-82
2022/10/24 09:12:58;;;;;;;5.47;2.10;;;;;;;15.88;100.00;96198.69;5009428;28;20242;-82
2022/10/24 09:15:30;;;;;;;6.23;2.23;;;;;;;15.92;100.00;96184.50;5025370;28;20210;-82
2022/10/24 09:17:59;;;;;;;3.50;2.17;;;;;;;15.98;100.00;96187.00;5006963;28;20204;-82
2022/10/24 09:20:31;;;;;;;6.13;2.20;;;;;;;16.01;100.00;96197.34;5007835;28;20209;-81
2022/10/24 09:23:03;;;;;;;5.63;2.30;;;;;;;15.98;100.00;96197.91;5008502;28;20249;-82
2022/10/24 09:25:35;;;;;;;3.90;2.40;;;;;;;15.95;100.00;96192.97;5011151;28;20229;-82
2022/10/24 09:28:05;;;;;;;5.90;2.57;;;;;;;16.03;100.00;96197.06;5008464;28;20231;-82
2022/10/24 09:30:35;;;;;;;5.87;2.63;;;;;;;15.99;100.00;96204.16;5003387;28;20227;-82
2022/10/24 09:33:11;;;;;;;5.80;2.50;;;;;;;15.91;100.00;96189.13;5008615;28;20219;-82
2022/10/24 09:35:40;;;;;;;3.10;2.00;;;;;;;15.96;100.00;96197.34;5007731;28;21032;-82
2022/10/24 09:38:32;;;;;;;3.87;1.90;;;;;;;15.99;100.00;96207.69;5025658;28;20218;-82
2022/10/24 09:41:03;;;;;;;5.80;2.07;;;;;;;16.06;100.00;96211.00;4994280;28;20231;-82
2022/10/24 09:43:49;;;;;;;5.43;2.20;;;;;;;16.05;100.00;96224.88;5008748;28;20199;-82
2022/10/24 09:46:18;;;;;;;4.40;1.93;;;;;;;16.07;100.00;96239.88;5005183;28;20475;-82
2022/10/24 09:48:51;;;;;;;3.13;2.20;;;;;;;16.11;100.00;96270.91;5014103;28;20199;-82
2022/10/24 09:51:25;;;;;;;3.30;1.90;;;;;;;15.95;100.00;96265.69;5007388;28;20214;-82
2022/10/24 09:54:03;;;;;;;7.33;2.70;;;;;;;15.94;100.00;96278.47;5020247;28;20227;-82
2022/10/24 09:56:36;;;;;;;9.90;3.20;;;;;;;15.92;100.00;96283.34;5009308;28;20266;-82
2022/10/24 09:59:37;;;;;;;5.30;2.37;;;;;;;15.99;100.00;96296.75;5004658;28;20225;-82
2022/10/24 10:02:19;;;;;;;10.53;2.77;;;;;;;15.94;100.00;96305.69;5007941;28;20261;-82
2022/10/24 10:04:48;;;;;;;6.67;2.60;;;;;;;15.88;100.00;96313.03;5009024;28;20286;-82
2022/10/24 10:07:19;;;;;;;8.03;2.97;;;;;;;15.76;100.00;96317.84;5015322;28;20297;-81
2022/10/24 10:09:52;;;;;;;9.17;2.80;;;;;;;15.75;100.00;96337.16;5012496;28;20247;-82
2022/10/24 10:12:28;;;;;;;5.00;2.23;;;;;;;15.66;100.00;96341.47;5002938;28;20222;-81
2022/10/24 10:14:56;;;;;;;6.53;2.83;;;;;;;15.58;100.00;96340.06;5009498;28;20321;-81
2022/10/24 10:17:25;;;;;;;8.80;3.00;;;;;;;15.48;100.00;96343.50;5025122;28;20215;-82
2022/10/24 10:19:54;;;;;;;9.80;3.10;;;;;;;15.45;100.00;96335.06;5009202;28;20286;-82
2022/10/24 10:22:26;;;;;;;5.93;5.13;;;;;;;15.27;100.00;96339.00;5007845;28;20210;-82
2022/10/24 10:24:53;;;;;;;2.93;2.20;;;;;;;15.19;100.00;96323.16;5008082;28;20210;-82
2022/10/24 10:27:34;;;;;;;4.60;2.10;;;;;;;15.36;100.00;96323.84;5006921;28;20195;-81
2022/10/24 10:30:19;;;;;;;6.57;2.73;;;;;;;15.40;100.00;96333.09;5008098;28;20211;-82
2022/10/24 10:32:58;;;;;;;7.03;4.63;;;;;;;15.36;100.00;96331.16;5008031;28;20219;-81
2022/10/24 10:35:31;;;;;;;8.27;4.10;;;;;;;15.30;100.00;96326.78;5022347;28;20238;-81
2022/10/24 10:38:13;;;;;;;7.83;4.47;;;;;;;15.38;100.00;96340.72;5006657;28;20219;-81
2022/10/24 10:40:45;;;;;;;7.60;3.70;;;;;;;15.37;100.00;96336.38;5006050;28;20207;-82
2022/10/24 10:43:27;;;;;;;8.40;3.17;;;;;;;15.43;100.00;96340.75;5011418;28;20218;-82
2022/10/24 10:46:07;;;;;;;5.20;3.80;;;;;;;15.42;100.00;96336.38;5007147;28;20211;-82
2022/10/24 10:48:48;;;;;;;7.97;3.80;;;;;;;15.37;100.00;96333.63;5005816;28;20211;-82
2022/10/24 10:51:22;;;;;;;8.20;3.90;;;;;;;15.32;100.00;96340.91;5000252;28;20214;-82
2022/10/24 10:54:04;;;;;;;8.37;3.70;;;;;;;15.41;100.00;96337.47;5021652;28;20227;-82
2022/10/24 10:56:43;;;;;;;5.47;3.07;;;;;;;15.42;100.00;96335.56;5003186;28;20210;-82
2022/10/24 10:59:26;;;;;;;7.63;3.10;;;;;;;15.41;100.00;96331.19;5003986;28;20234;-82
2022/10/24 11:02:00;;;;;;;5.63;3.53;;;;;;;15.45;100.00;96333.16;5005484;28;20232;-82
2022/10/24 11:04:33;;;;;;;7.70;2.57;;;;;;;15.52;100.00;96341.91;5012488;28;20219;-82
2022/10/24 11:07:12;;;;;;;7.17;3.23;;;;;;;15.46;100.00;96336.69;5000736;28;20198;-82
2022/10/24 11:09:44;;;;;;;6.03;2.60;;;;;;;15.49;100.00;96330.72;4999176;28;20235;-82
2022/10/24 11:12:17;;;;;;;4.70;2.40;;;;;;;15.47;100.00;96327.47;5003399;28;20231;-81
2022/10/24 11:14:49;;;;;;;8.13;3.10;;;;;;;15.51;100.00;96326.66;5003488;28;20223;-82
2022/10/24 11:17:21;;;;;;;7.10;4.20;;;;;;;15.55;100.00;96335.16;5007055;28;20212;-81
2022/10/24 11:19:56;;;;;;;8.17;3.33;;;;;;;15.57;100.00;96335.69;5012825;28;20204;-81
2022/10/24 11:22:27;;;;;;;6.50;3.83;;;;;;;15.56;100.00;96328.63;5000609;28;20207;-81
2022/10/24 11:25:01;;;;;;;9.50;6.50;;;;;;;15.59;100.00;96325.38;5008970;28;20191;-82
2022/10/24 11:27:36;;;;;;;8.57;2.97;;;;;;;15.59;100.00;96319.94;5004060;28;20602;-81
2022/10/24 11:30:06;;;;;;;7.43;2.57;;;;;;;15.63;100.00;96325.69;5000636;28;20205;-82
2022/10/24 11:32:39;;;;;;;6.60;3.00;;;;;;;15.71;100.00;96330.63;5006419;28;20214;-82
2022/10/24 11:35:16;;;;;;;6.20;2.63;;;;;;;15.73;100.00;96342.91;5005320;28;20227;-82
2022/10/24 11:37:49;;;;;;;6.17;2.17;;;;;;;15.65;100.00;96335.19;5007727;28;20218;-81